Time;durP1;ratioP1;P1;durP2;ratioP2;P2;SDS_P1;SDS_P2;PMS_P1;PMS_P2;Temp;Humidity;BMP_temperature;BMP_pressure;BME280_temperature;BME280_humidity;BME280_pressure;Samples;Min_cycle;Max_cycle;Signal;HPM_P1;HPM_P2
2022/05/27 00:04:45;;;;;;;1.90;1.50;;;18.00;31.60;;;;;;10438875;28;20236;-75
2022/05/27 00:09:49;;;;;;;1.60;1.50;;;17.90;32.10;;;;;;10445540;28;20256;-75
2022/05/27 00:14:52;;;;;;;2.20;1.50;;;17.90;31.80;;;;;;10433309;28;20233;-75
2022/05/27 00:19:57;;;;;;;1.97;1.40;;;17.80;32.00;;;;;;10443427;28;20718;-75
2022/05/27 00:25:00;;;;;;;1.70;1.60;;;17.70;32.40;;;;;;10433857;28;20235;-75
2022/05/27 00:30:04;;;;;;;1.40;1.30;;;17.60;32.10;;;;;;10437361;28;20313;-75
2022/05/27 00:35:09;;;;;;;1.60;1.50;;;17.50;32.40;;;;;;10440163;28;20229;-75
2022/05/27 00:40:14;;;;;;;1.73;1.63;;;17.30;32.90;;;;;;10439694;28;20221;-75
2022/05/27 00:45:20;;;;;;;1.80;1.43;;;17.40;32.80;;;;;;10433394;28;20235;-75
2022/05/27 00:50:30;;;;;;;1.57;1.47;;;17.30;33.20;;;;;;10438165;28;20229;-75
2022/05/27 00:55:42;;;;;;;1.50;1.40;;;17.30;33.70;;;;;;10443015;28;20780;-76
2022/05/27 01:00:46;;;;;;;1.60;1.50;;;17.30;33.60;;;;;;10431462;28;20251;-75
2022/05/27 01:05:51;;;;;;;4.57;1.63;;;17.20;32.90;;;;;;10431878;28;20239;-75
2022/05/27 01:10:58;;;;;;;2.60;1.60;;;17.20;33.50;;;;;;10433225;28;20319;-75
2022/05/27 01:16:11;;;;;;;1.73;1.57;;;17.10;34.00;;;;;;10435228;28;20225;-75
2022/05/27 01:21:22;;;;;;;2.20;1.50;;;17.10;34.00;;;;;;10436766;28;20227;-75
2022/05/27 01:26:56;;;;;;;1.50;1.40;;;17.00;33.90;;;;;;10433314;28;20221;-75
2022/05/27 01:32:04;;;;;;;1.80;1.70;;;17.00;33.90;;;;;;10430365;28;20228;-75
2022/05/27 01:37:12;;;;;;;1.70;1.60;;;17.00;33.90;;;;;;10429909;28;20228;-75
2022/05/27 01:42:20;;;;;;;2.00;1.40;;;17.00;33.90;;;;;;10436018;28;20260;-75
2022/05/27 01:47:36;;;;;;;1.80;1.40;;;16.90;33.80;;;;;;10434410;28;20299;-74
2022/05/27 01:52:45;;;;;;;2.13;1.60;;;16.90;33.80;;;;;;10441591;28;20231;-75
2022/05/27 01:57:56;;;;;;;1.87;1.47;;;16.90;34.00;;;;;;10434895;28;20231;-75
2022/05/27 02:03:06;;;;;;;2.07;1.63;;;16.80;33.90;;;;;;10432697;28;20228;-76
2022/05/27 02:08:14;;;;;;;2.17;1.47;;;16.80;34.50;;;;;;10434191;28;20370;-75
2022/05/27 02:13:24;;;;;;;1.73;1.47;;;16.70;34.10;;;;;;10437714;28;20271;-75
2022/05/27 02:18:32;;;;;;;1.60;1.50;;;16.70;34.60;;;;;;10433054;28;20260;-75
2022/05/27 02:23:40;;;;;;;1.67;1.57;;;16.70;34.80;;;;;;10429487;28;20233;-75
2022/05/27 02:28:47;;;;;;;4.70;1.90;;;16.60;34.20;;;;;;10428788;28;20867;-74
2022/05/27 02:39:16;;;;;;;1.60;1.50;;;16.60;35.00;;;;;;10438221;28;20308;-75
2022/05/27 02:44:25;;;;;;;2.07;1.80;;;16.60;34.00;;;;;;10431609;28;20229;-74
2022/05/27 02:49:38;;;;;;;1.67;1.50;;;16.60;35.20;;;;;;10434259;28;20233;-75
2022/05/27 02:54:48;;;;;;;2.93;1.57;;;16.50;35.40;;;;;;10435073;28;20285;-74
2022/05/27 02:59:52;;;;;;;2.47;1.43;;;16.50;34.90;;;;;;10428704;28;20228;-75
2022/05/27 03:05:00;;;;;;;1.40;1.40;;;16.40;34.30;;;;;;10430666;28;20237;-75
2022/05/27 03:10:21;;;;;;;2.00;1.80;;;16.30;35.10;;;;;;10424642;28;20260;-75
2022/05/27 03:15:36;;;;;;;1.70;1.60;;;16.30;35.70;;;;;;10441178;28;20233;-76
2022/05/27 03:20:49;;;;;;;1.77;1.67;;;16.20;35.50;;;;;;10441996;28;20224;-76
2022/05/27 03:26:00;;;;;;;2.77;1.57;;;16.10;35.70;;;;;;10436354;28;20225;-75
2022/05/27 03:31:09;;;;;;;1.47;1.27;;;16.10;35.30;;;;;;10441420;28;20224;-75
2022/05/27 03:36:21;;;;;;;3.40;1.70;;;16.10;35.50;;;;;;10443976;28;20221;-75
2022/05/27 03:41:30;;;;;;;1.60;1.50;;;16.10;36.00;;;;;;10447057;28;20224;-76
2022/05/27 03:46:36;;;;;;;1.50;1.40;;;16.10;36.40;;;;;;10437757;28;20228;-76
2022/05/27 03:51:51;;;;;;;2.17;1.90;;;16.10;35.20;;;;;;10442611;28;20239;-75
2022/05/27 03:56:54;;;;;;;2.63;2.43;;;16.10;36.20;;;;;;10442423;28;20601;-76
2022/05/27 04:01:58;;;;;;;1.83;1.73;;;16.10;35.20;;;;;;10439523;28;20312;-76
2022/05/27 04:07:03;;;;;;;2.20;1.83;;;16.10;35.50;;;;;;10443843;28;20252;-75
2022/05/27 04:12:07;;;;;;;1.67;1.57;;;16.00;36.00;;;;;;10436036;28;20221;-75
2022/05/27 04:22:31;;;;;;;1.60;1.50;;;16.10;35.90;;;;;;10441857;28;20251;-76
2022/05/27 04:27:36;;;;;;;1.70;1.60;;;16.00;36.40;;;;;;10434098;28;20224;-76
2022/05/27 04:32:40;;;;;;;3.10;1.70;;;16.00;36.30;;;;;;10439170;28;20263;-75
2022/05/27 04:37:44;;;;;;;1.90;1.80;;;16.00;36.60;;;;;;10441686;28;20622;-75
2022/05/27 04:42:47;;;;;;;1.83;1.50;;;16.00;37.10;;;;;;10443724;28;20238;-75
2022/05/27 04:47:51;;;;;;;1.87;1.40;;;16.00;36.90;;;;;;10441244;28;20290;-77
2022/05/27 04:52:55;;;;;;;2.33;1.63;;;16.10;37.00;;;;;;10441691;28;20231;-77
2022/05/27 04:58:00;;;;;;;2.17;1.60;;;16.20;37.90;;;;;;10453598;28;20221;-77
2022/05/27 05:03:04;;;;;;;2.67;1.67;;;16.30;37.80;;;;;;10430632;28;20236;-78
2022/05/27 05:08:15;;;;;;;1.60;1.50;;;16.40;37.70;;;;;;10426358;28;20221;-78
2022/05/27 05:13:18;;;;;;;1.70;1.60;;;16.60;38.70;;;;;;10439395;28;20228;-78
2022/05/27 05:18:21;;;;;;;2.30;1.77;;;16.80;38.10;;;;;;10432584;28;22394;-78
2022/05/27 05:23:26;;;;;;;2.00;1.70;;;16.90;38.30;;;;;;10430163;28;20225;-79
2022/05/27 05:28:29;;;;;;;1.83;1.40;;;17.10;38.80;;;;;;10421680;28;20234;-78
2022/05/27 05:33:32;;;;;;;1.67;1.40;;;17.30;38.30;;;;;;10425167;28;20225;-79
2022/05/27 05:38:36;;;;;;;1.83;1.03;;;17.50;38.10;;;;;;10419891;28;20717;-79
2022/05/27 05:43:39;;;;;;;1.87;1.23;;;17.80;38.10;;;;;;10423995;28;20229;-79
2022/05/27 05:48:43;;;;;;;1.67;1.20;;;18.00;37.70;;;;;;10420381;28;20248;-79
2022/05/27 05:53:47;;;;;;;1.50;1.27;;;18.20;37.60;;;;;;10421250;28;20904;-79
2022/05/27 05:58:51;;;;;;;1.53;1.43;;;18.40;37.20;;;;;;10417375;28;20228;-78
2022/05/27 06:03:54;;;;;;;2.33;1.40;;;18.60;37.10;;;;;;10429402;28;20235;-78
2022/05/27 06:08:59;;;;;;;1.30;1.20;;;18.80;36.70;;;;;;10418069;28;20231;-79
2022/05/27 06:14:02;;;;;;;2.80;1.70;;;19.00;36.70;;;;;;10430235;28;20268;-79
2022/05/27 06:19:05;;;;;;;2.20;1.70;;;19.20;36.40;;;;;;10423645;28;20648;-78
2022/05/27 06:24:11;;;;;;;1.60;1.50;;;19.30;36.30;;;;;;10423030;28;20228;-79
2022/05/27 06:34:35;;;;;;;1.73;1.60;;;19.50;36.10;;;;;;10412932;28;20467;-79
2022/05/27 06:39:40;;;;;;;2.00;1.60;;;19.60;36.20;;;;;;10417125;28;20218;-79
2022/05/27 06:44:44;;;;;;;1.47;1.37;;;19.70;36.20;;;;;;10423532;28;20239;-79
2022/05/27 06:49:47;;;;;;;2.10;1.60;;;19.80;36.30;;;;;;10424108;28;20227;-79
2022/05/27 06:54:52;;;;;;;2.80;1.50;;;20.00;36.50;;;;;;10421558;28;20232;-80
2022/05/27 06:59:56;;;;;;;1.57;1.33;;;20.10;36.30;;;;;;10430487;28;20225;-79
2022/05/27 07:04:59;;;;;;;2.57;1.50;;;20.20;36.00;;;;;;10428970;28;20239;-79
2022/05/27 07:10:05;;;;;;;1.50;1.40;;;20.30;36.80;;;;;;10433172;28;20637;-79
2022/05/27 07:15:10;;;;;;;1.27;1.20;;;20.50;35.80;;;;;;10430333;28;20244;-79
2022/05/27 07:20:13;;;;;;;1.53;1.20;;;20.60;35.90;;;;;;10431922;28;20224;-79
2022/05/27 07:25:18;;;;;;;2.07;1.57;;;20.70;35.40;;;;;;10426344;28;20320;-79
2022/05/27 07:30:21;;;;;;;3.43;1.73;;;20.80;34.60;;;;;;10421513;28;20912;-78
2022/05/27 07:35:25;;;;;;;1.67;1.57;;;20.80;34.80;;;;;;10417827;28;20235;-78
2022/05/27 07:40:29;;;;;;;2.03;1.40;;;20.90;35.00;;;;;;10428512;28;20239;-79
2022/05/27 07:45:36;;;;;;;2.40;1.30;;;20.90;34.50;;;;;;10422499;28;20229;-79
2022/05/27 07:50:40;;;;;;;1.63;1.40;;;21.00;34.70;;;;;;10426324;28;20217;-79
2022/05/27 07:55:45;;;;;;;1.97;1.37;;;21.10;34.60;;;;;;10420540;28;20226;-79
2022/05/27 08:00:48;;;;;;;2.70;1.30;;;21.20;34.70;;;;;;10428599;28;20656;-79
2022/05/27 08:05:51;;;;;;;3.97;1.43;;;21.30;34.60;;;;;;10427765;28;20240;-79
2022/05/27 08:10:56;;;;;;;1.57;1.43;;;21.40;34.30;;;;;;10431364;28;20229;-79
2022/05/27 08:15:59;;;;;;;3.00;1.53;;;21.40;34.00;;;;;;10434450;28;20225;-79
2022/05/27 08:21:02;;;;;;;1.57;1.47;;;21.60;34.50;;;;;;10448092;28;20233;-79
2022/05/27 08:26:06;;;;;;;1.70;1.50;;;21.60;34.30;;;;;;10440468;28;20224;-80
2022/05/27 08:31:10;;;;;;;1.77;1.63;;;21.80;33.90;;;;;;10447390;28;21142;-79
2022/05/27 08:41:48;;;;;;;2.03;1.67;;;22.00;33.40;;;;;;10405125;28;20245;-80
2022/05/27 08:46:59;;;;;;;1.93;1.50;;;22.00;33.40;;;;;;10440824;28;20247;-80
2022/05/27 08:52:09;;;;;;;1.93;1.60;;;22.10;33.30;;;;;;10431510;28;20232;-80
2022/05/27 09:02:39;;;;;;;3.63;1.60;;;22.20;32.90;;;;;;10443981;28;20229;-80
2022/05/27 09:07:48;;;;;;;2.63;1.93;;;22.20;33.20;;;;;;10433973;28;20236;-81
2022/05/27 09:13:06;;;;;;;1.43;1.37;;;22.10;32.50;;;;;;10439061;28;20308;-81
2022/05/27 09:18:21;;;;;;;1.90;1.60;;;22.10;33.30;;;;;;10442737;28;20223;-80
2022/05/27 09:23:45;;;;;;;1.93;1.60;;;22.20;33.00;;;;;;10448074;28;20233;-80
2022/05/27 09:28:58;;;;;;;2.27;1.50;;;22.20;31.50;;;;;;10442007;28;20772;-77
2022/05/27 09:34:01;;;;;;;1.30;1.30;;;22.20;32.60;;;;;;10424085;28;20237;-75
2022/05/27 09:39:10;;;;;;;1.40;1.30;;;22.20;33.10;;;;;;10416064;28;20220;-73
2022/05/27 09:44:22;;;;;;;1.97;1.63;;;22.30;33.30;;;;;;10419785;28;20233;-75
2022/05/27 09:49:25;;;;;;;2.47;1.77;;;22.50;33.30;;;;;;10432683;28;20225;-73
2022/05/27 09:54:41;;;;;;;1.87;1.53;;;22.60;33.20;;;;;;10439690;28;20685;-77
2022/05/27 10:04:56;;;;;;;2.50;1.70;;;22.70;32.50;;;;;;10407241;27;20588;-77
2022/05/27 10:10:19;;;;;;;2.00;1.90;;;22.60;32.50;;;;;;10405636;28;20221;-77
2022/05/27 10:15:32;;;;;;;2.10;1.80;;;22.70;32.10;;;;;;10402867;28;20224;-77
2022/05/27 10:20:37;;;;;;;1.63;1.53;;;22.70;31.50;;;;;;10400155;28;20225;-77
2022/05/27 10:25:42;;;;;;;2.13;1.90;;;22.60;32.20;;;;;;10405866;28;20225;-77
2022/05/27 10:30:54;;;;;;;1.80;1.70;;;22.60;32.00;;;;;;10409500;28;20217;-77
2022/05/27 10:35:58;;;;;;;2.77;1.47;;;22.60;32.20;;;;;;10416170;28;20226;-77
2022/05/27 10:41:07;;;;;;;1.73;1.57;;;22.60;32.30;;;;;;10418420;28;20233;-76
2022/05/27 10:46:15;;;;;;;1.53;1.43;;;22.70;31.80;;;;;;10414631;28;20230;-76
2022/05/27 10:51:34;;;;;;;1.80;1.70;;;22.80;31.60;;;;;;10411227;28;20646;-76
2022/05/27 10:56:43;;;;;;;2.23;1.40;;;22.80;31.30;;;;;;10411106;28;20247;-75
2022/05/27 11:02:07;;;;;;;1.63;1.53;;;22.90;31.20;;;;;;10413101;28;20232;-76
2022/05/27 11:07:22;;;;;;;3.23;1.80;;;23.00;31.50;;;;;;10409829;28;20231;-76
2022/05/27 11:15:10;;;;;;;2.13;1.60;;;23.20;31.30;;;;;;10411144;28;20600;-76
2022/05/27 11:18:11;;;;;;;5.20;1.43;;;23.20;30.50;;;;;;10390793;28;20237;-76
2022/05/27 11:23:36;;;;;;;1.70;1.60;;;23.30;31.00;;;;;;10386311;28;20234;-76
2022/05/27 11:28:59;;;;;;;2.17;1.60;;;23.40;30.50;;;;;;10383528;28;20239;-76
2022/05/27 11:34:13;;;;;;;1.70;1.60;;;23.40;30.40;;;;;;10381407;28;20218;-77
2022/05/27 11:39:47;;;;;;;1.67;1.30;;;23.50;30.00;;;;;;10385132;28;20585;-79
2022/05/27 11:44:59;;;;;;;1.70;1.60;;;23.50;30.70;;;;;;10386474;28;20226;-77
2022/05/27 11:50:27;;;;;;;1.63;1.53;;;23.60;29.10;;;;;;10387993;28;20712;-77
2022/05/27 11:56:00;;;;;;;2.03;1.47;;;23.60;29.00;;;;;;10369329;28;20264;-76
2022/05/27 12:01:07;;;;;;;1.57;1.47;;;23.50;29.40;;;;;;10366343;28;20315;-76
2022/05/27 12:06:15;;;;;;;1.93;1.20;;;23.50;29.80;;;;;;10371083;28;20884;-76
2022/05/27 12:11:23;;;;;;;2.73;1.70;;;23.60;30.10;;;;;;10362810;28;20222;-76
2022/05/27 12:16:29;;;;;;;3.50;1.70;;;23.60;29.20;;;;;;10373093;28;20262;-76
2022/05/27 12:21:40;;;;;;;3.50;1.80;;;23.60;29.40;;;;;;10374188;28;20236;-76
2022/05/27 12:26:45;;;;;;;1.97;1.77;;;23.60;29.50;;;;;;10370360;28;20606;-76
2022/05/27 12:31:49;;;;;;;2.50;1.60;;;23.60;29.40;;;;;;10381730;28;20288;-76
2022/05/27 12:36:53;;;;;;;3.13;1.80;;;23.60;29.70;;;;;;10384081;28;20229;-76
2022/05/27 12:42:11;;;;;;;1.63;1.53;;;23.60;29.80;;;;;;10381262;28;20240;-75
2022/05/27 12:47:18;;;;;;;2.03;1.83;;;23.60;29.20;;;;;;10384215;28;20234;-75
2022/05/27 12:52:44;;;;;;;1.50;1.40;;;23.60;29.10;;;;;;10380605;28;20237;-76
2022/05/27 13:03:52;;;;;;;2.03;1.90;;;23.60;30.00;;;;;;10292592;28;20236;-76
2022/05/27 13:09:01;;;;;;;2.03;1.80;;;23.70;28.90;;;;;;10362546;28;20238;-77
2022/05/27 13:14:18;;;;;;;3.97;1.80;;;23.80;28.60;;;;;;10340181;28;20313;-76
2022/05/27 13:19:33;;;;;;;1.50;1.40;;;23.80;28.00;;;;;;10349467;28;20226;-77
2022/05/27 13:24:38;;;;;;;1.80;1.70;;;23.90;28.60;;;;;;10379191;28;20309;-77
2022/05/27 13:29:55;;;;;;;2.67;1.67;;;23.90;28.00;;;;;;10374286;28;20237;-77
2022/05/27 13:35:02;;;;;;;1.80;1.70;;;23.90;27.40;;;;;;10375578;28;20229;-77
2022/05/27 13:40:08;;;;;;;2.40;1.80;;;24.00;28.10;;;;;;10374582;28;20562;-76
2022/05/27 13:45:15;;;;;;;1.97;1.70;;;24.10;28.10;;;;;;10371499;28;20217;-75
2022/05/27 13:50:34;;;;;;;1.80;1.70;;;24.20;27.50;;;;;;10369935;28;20329;-77
2022/05/27 13:55:37;;;;;;;4.87;1.70;;;24.30;28.10;;;;;;10373866;28;20229;-78
2022/05/27 14:00:44;;;;;;;1.47;1.37;;;24.30;28.20;;;;;;10372830;28;20605;-75
2022/05/27 14:05:56;;;;;;;4.17;1.70;;;24.50;27.60;;;;;;10366464;28;20230;-76
2022/05/27 14:10:59;;;;;;;1.90;1.80;;;24.50;27.70;;;;;;10346742;28;20662;-77
2022/05/27 14:16:10;;;;;;;1.70;1.60;;;24.30;27.70;;;;;;10332974;28;20234;-76
2022/05/27 14:26:38;;;;;;;1.80;1.70;;;24.20;27.70;;;;;;10332140;28;20225;-76
2022/05/27 14:31:43;;;;;;;1.60;1.50;;;24.10;27.30;;;;;;10337290;28;20227;-77
2022/05/27 14:36:54;;;;;;;1.60;1.40;;;23.90;27.20;;;;;;10331063;28;20647;-77
2022/05/27 14:42:00;;;;;;;1.50;1.40;;;23.80;27.90;;;;;;10333007;28;20222;-77
2022/05/27 14:47:08;;;;;;;3.77;1.30;;;23.60;27.70;;;;;;10357877;28;20892;-77
2022/05/27 14:52:19;;;;;;;1.33;1.30;;;23.50;27.70;;;;;;10378957;28;20223;-77
2022/05/27 14:57:28;;;;;;;2.00;1.40;;;23.30;27.50;;;;;;10379362;28;20226;-78
2022/05/27 15:02:48;;;;;;;1.57;1.30;;;23.20;27.50;;;;;;10377592;28;20229;-77
2022/05/27 15:07:54;;;;;;;2.03;1.43;;;23.00;27.80;;;;;;10382378;28;20230;-78
2022/05/27 15:12:58;;;;;;;1.73;1.27;;;22.90;28.00;;;;;;10385217;28;20305;-77
2022/05/27 15:18:09;;;;;;;2.23;1.37;;;22.90;28.30;;;;;;10385770;28;20722;-77
2022/05/27 15:23:13;;;;;;;3.07;1.50;;;22.90;28.30;;;;;;10386078;28;20228;-78
2022/05/27 15:39:07;;;;;;;2.50;1.50;;;22.80;28.30;;;;;;10550402;27;20968;-76
2022/05/27 15:44:14;;;;;;;1.97;1.60;;;22.80;28.30;;;;;;10560040;28;20233;-76
2022/05/27 15:49:17;;;;;;;2.40;1.70;;;22.80;28.30;;;;;;10568161;28;20228;-77
2022/05/27 15:54:23;;;;;;;2.57;1.67;;;22.70;28.40;;;;;;10566761;28;20739;-76
2022/05/27 15:59:26;;;;;;;1.70;1.60;;;22.70;28.60;;;;;;10567290;28;20227;-76
2022/05/27 16:04:29;;;;;;;1.27;1.27;;;22.60;28.50;;;;;;10566741;28;20229;-76
2022/05/27 16:09:34;;;;;;;1.20;1.20;;;22.50;28.70;;;;;;10566979;28;20763;-76
2022/05/27 16:14:38;;;;;;;1.57;1.50;;;22.40;29.30;;;;;;10566753;28;20655;-76
2022/05/27 16:19:41;;;;;;;1.40;1.30;;;22.30;28.70;;;;;;10567050;28;20219;-76
2022/05/27 16:24:45;;;;;;;1.43;1.33;;;22.20;28.80;;;;;;10565542;28;20227;-76
2022/05/27 16:29:49;;;;;;;1.27;1.10;;;22.20;28.90;;;;;;10565540;28;20619;-75
2022/05/27 16:34:52;;;;;;;1.27;1.03;;;22.10;28.90;;;;;;10565211;28;20231;-76
2022/05/27 16:39:56;;;;;;;1.13;1.13;;;22.00;29.00;;;;;;10565369;28;20225;-76
2022/05/27 16:45:00;;;;;;;1.67;1.30;;;21.90;29.20;;;;;;10564842;28;20302;-76
2022/05/27 16:50:03;;;;;;;1.10;1.10;;;21.80;29.20;;;;;;10572619;27;20227;-76
2022/05/27 16:55:11;;;;;;;1.20;1.10;;;21.70;29.30;;;;;;10578242;28;20250;-76
2022/05/27 17:00:19;;;;;;;1.20;1.10;;;21.60;29.60;;;;;;10578165;27;20238;-76
2022/05/27 17:05:24;;;;;;;1.20;1.20;;;21.60;29.60;;;;;;10577666;27;20227;-76
2022/05/27 17:10:28;;;;;;;1.60;1.50;;;21.50;29.60;;;;;;10578536;28;20594;-75
2022/05/27 17:15:32;;;;;;;1.43;1.33;;;21.50;29.70;;;;;;10578313;28;20230;-76
2022/05/27 17:20:35;;;;;;;1.30;1.20;;;21.50;29.70;;;;;;10579788;28;20226;-76
2022/05/27 17:25:40;;;;;;;2.50;1.30;;;21.50;29.80;;;;;;10580219;27;20229;-76
2022/05/27 17:30:43;;;;;;;2.60;1.40;;;21.30;30.00;;;;;;10579104;28;20657;-75
2022/05/27 17:35:47;;;;;;;1.57;1.47;;;21.30;30.10;;;;;;10578383;27;20230;-75
2022/05/27 17:40:51;;;;;;;1.63;1.50;;;21.20;30.40;;;;;;10578528;27;20226;-76
2022/05/27 17:45:54;;;;;;;1.93;1.50;;;21.10;30.70;;;;;;10578254;28;20227;-75
2022/05/27 17:56:25;;;;;;;1.50;1.40;;;20.90;31.00;;;;;;10570209;28;20279;-75
2022/05/27 18:01:29;;;;;;;1.30;1.30;;;20.90;31.10;;;;;;10575217;28;20719;-75
2022/05/27 18:06:32;;;;;;;1.50;1.40;;;20.90;30.90;;;;;;10576656;28;20257;-76
2022/05/27 18:11:36;;;;;;;1.60;1.50;;;20.90;31.00;;;;;;10576753;28;20227;-75
2022/05/27 18:16:40;;;;;;;1.70;1.60;;;20.90;31.20;;;;;;10576173;28;20231;-76
2022/05/27 18:21:43;;;;;;;1.60;1.50;;;20.90;31.10;;;;;;10575626;27;20222;-76
2022/05/27 18:26:48;;;;;;;1.50;1.40;;;20.80;31.20;;;;;;10575890;28;20722;-76
2022/05/27 18:31:51;;;;;;;3.23;1.50;;;20.80;31.60;;;;;;10575693;27;20706;-76
2022/05/27 18:36:54;;;;;;;1.50;1.40;;;20.70;31.70;;;;;;10574932;28;20309;-76
2022/05/27 18:41:59;;;;;;;1.50;1.40;;;20.60;32.60;;;;;;10566805;28;20227;-75
2022/05/27 18:47:02;;;;;;;1.67;1.57;;;20.60;32.10;;;;;;10549109;28;20233;-76
2022/05/27 18:52:06;;;;;;;1.50;1.40;;;20.60;31.80;;;;;;10565504;28;20229;-76
2022/05/27 18:57:15;;;;;;;1.70;1.60;;;20.60;31.70;;;;;;10565306;28;20254;-77
2022/05/27 19:02:18;;;;;;;1.70;1.60;;;20.70;31.90;;;;;;10565429;28;20230;-77
2022/05/27 19:07:22;;;;;;;1.40;1.30;;;20.70;31.60;;;;;;10565036;28;20252;-77
2022/05/27 19:12:27;;;;;;;1.77;1.40;;;20.70;31.50;;;;;;10563676;28;20789;-75
2022/05/27 19:17:30;;;;;;;1.93;1.40;;;20.70;31.50;;;;;;10566106;28;20875;-76
2022/05/27 19:22:34;;;;;;;1.53;1.43;;;20.70;31.30;;;;;;10565085;28;20231;-78
2022/05/27 19:27:39;;;;;;;1.40;1.40;;;20.60;31.00;;;;;;10564941;28;20587;-77
2022/05/27 19:32:42;;;;;;;1.20;1.10;;;20.60;31.10;;;;;;10565662;28;20235;-78
2022/05/27 19:37:45;;;;;;;1.10;1.10;;;20.60;31.00;;;;;;10570119;28;20249;-78
2022/05/27 19:42:50;;;;;;;1.30;1.20;;;20.60;31.00;;;;;;10567607;28;20885;-78
2022/05/27 19:47:53;;;;;;;1.50;1.40;;;20.60;31.10;;;;;;10571542;28;20229;-78
2022/05/27 19:52:57;;;;;;;2.70;1.33;;;20.50;31.00;;;;;;10581379;28;20219;-78
2022/05/27 20:09:04;;;;;;;1.27;1.20;;;20.50;30.90;;;;;;10582072;28;20218;-78
2022/05/27 20:14:13;;;;;;;1.20;1.20;;;20.50;30.90;;;;;;10581641;28;20250;-77
2022/05/27 20:19:17;;;;;;;1.10;1.10;;;20.40;31.20;;;;;;10573089;28;20255;-77
2022/05/27 20:24:21;;;;;;;1.10;1.10;;;20.40;31.10;;;;;;10578374;28;20234;-78
2022/05/27 20:29:26;;;;;;;1.20;1.20;;;20.40;31.00;;;;;;10581720;27;20237;-78
2022/05/27 20:34:29;;;;;;;1.30;1.30;;;20.40;31.10;;;;;;10581989;27;20310;-77
2022/05/27 20:39:38;;;;;;;1.47;1.37;;;20.40;30.90;;;;;;10579547;27;20223;-77
2022/05/27 20:44:42;;;;;;;1.30;1.27;;;20.40;30.90;;;;;;10578974;28;20293;-77
2022/05/27 20:49:46;;;;;;;1.60;1.50;;;20.30;30.90;;;;;;10578913;28;20233;-77
2022/05/27 20:54:50;;;;;;;1.30;1.30;;;20.30;30.70;;;;;;10578523;27;20233;-77
2022/05/27 20:59:54;;;;;;;1.63;1.20;;;20.20;30.70;;;;;;10577806;28;20251;-77
2022/05/27 21:04:58;;;;;;;2.50;1.40;;;20.20;30.80;;;;;;10577803;28;20897;-77
2022/05/27 21:10:01;;;;;;;2.27;1.40;;;20.10;30.70;;;;;;10577878;28;20227;-77
2022/05/27 21:15:06;;;;;;;1.30;1.20;;;20.00;30.80;;;;;;10577521;28;20590;-77
2022/05/27 21:20:11;;;;;;;1.40;1.30;;;19.80;31.10;;;;;;10579714;27;20237;-77
2022/05/27 21:25:14;;;;;;;1.80;1.60;;;19.60;31.20;;;;;;10577993;28;20261;-76
2022/05/27 21:30:21;;;;;;;1.40;1.30;;;19.50;31.20;;;;;;10578857;27;20779;-77
2022/05/27 21:35:26;;;;;;;1.30;1.30;;;19.40;31.60;;;;;;10589308;27;20231;-77
2022/05/27 21:40:29;;;;;;;1.53;1.43;;;19.20;31.50;;;;;;10560245;28;20247;-81
2022/05/27 21:45:35;;;;;;;1.50;1.40;;;19.20;31.60;;;;;;10539935;28;20233;-80
2022/05/27 21:50:38;;;;;;;1.77;1.67;;;19.20;31.70;;;;;;10557812;28;20318;-79
2022/05/27 21:55:41;;;;;;;1.60;1.50;;;19.20;31.60;;;;;;10564123;28;20223;-80
2022/05/27 22:00:46;;;;;;;1.60;1.50;;;19.20;31.60;;;;;;10562738;27;20250;-79
2022/05/27 22:05:51;;;;;;;1.53;1.50;;;19.10;31.80;;;;;;10564375;27;20726;-79
2022/05/27 22:16:22;;;;;;;1.60;1.50;;;19.00;31.70;;;;;;10526538;27;20222;-79
2022/05/27 22:21:26;;;;;;;1.10;1.10;;;18.90;32.00;;;;;;10567067;27;20863;-79
2022/05/27 22:26:30;;;;;;;2.37;1.70;;;18.80;31.90;;;;;;10564735;28;20223;-79
2022/05/27 22:31:34;;;;;;;1.70;1.60;;;18.70;32.00;;;;;;10560991;28;20219;-79
2022/05/27 22:36:38;;;;;;;1.50;1.40;;;18.60;32.30;;;;;;10559938;28;20231;-78
2022/05/27 22:41:41;;;;;;;1.50;1.40;;;18.50;32.20;;;;;;10561394;27;20718;-79
2022/05/27 22:46:46;;;;;;;1.53;1.43;;;18.40;32.50;;;;;;10543263;28;20226;-79
2022/05/27 22:51:49;;;;;;;1.53;1.43;;;18.30;32.70;;;;;;10560332;27;20229;-79
2022/05/27 22:56:53;;;;;;;1.73;1.63;;;18.20;32.70;;;;;;10566661;27;20219;-79
2022/05/27 23:01:57;;;;;;;1.70;1.60;;;18.20;32.80;;;;;;10560704;28;20230;-78
2022/05/27 23:07:01;;;;;;;1.60;1.50;;;18.10;33.20;;;;;;10556225;28;20266;-79
2022/05/27 23:12:06;;;;;;;1.60;1.50;;;18.00;32.90;;;;;;10561387;28;20254;-79
2022/05/27 23:22:31;;;;;;;1.57;1.47;;;18.00;33.50;;;;;;10556231;28;20308;-79
2022/05/27 23:27:34;;;;;;;1.40;1.40;;;18.00;33.20;;;;;;10549649;28;20226;-78
2022/05/27 23:32:39;;;;;;;1.77;1.60;;;18.00;33.10;;;;;;10562187;28;20681;-79
2022/05/27 23:37:42;;;;;;;1.70;1.60;;;18.00;33.60;;;;;;10519775;28;20232;-78
2022/05/27 23:42:45;;;;;;;1.60;1.50;;;18.00;33.40;;;;;;10551930;28;20301;-78
2022/05/27 23:47:50;;;;;;;1.80;1.70;;;18.00;33.50;;;;;;10552287;28;20666;-79
2022/05/27 23:52:53;;;;;;;3.23;1.80;;;18.00;34.00;;;;;;10561443;28;20231;-79
2022/05/27 23:57:56;;;;;;;1.87;1.77;;;18.00;33.70;;;;;;10568489;27;20607;-79
